SLE2471 LEPA-EPKK
Flight info
| Callsign | SLE2471 |
|---|---|
| Flight time | 2h 27m |
| Altitude | 39000 |
| Route | NO450F380 ISTER DCT LUNOR DCT NESUL DCT NEGAT DCT OMEDA DCT RAPUR DCT TORTU DCT ERTEV DCT OSBUL DCT IBUPU DCT ROKIB DCT MALUG/N0450F390 DCT INGID DCT GAMLI DCT STO DCT LEDVA DCT NETIR |
| Aircraft | A321/M-SDE3FGHIRWY/LB1 |
Departure
| Time | 2026-05-07 08:28 |
|---|---|
| Airport | Palma de Mallorca Airport (LEPA) |
Arrival
| Time | 2026-05-07 10:55 |
|---|---|
| Airport | Kraków John Paul II International Airport (EPKK) |
| Time | Latitude | Longitude | Altitude | Speed | Heading |
|---|---|---|---|---|---|
| 2026-05-07 07:55 | 39.54851 | 2.73841 | 38 ft | 0 kts | 268° |
| 2026-05-07 08:18 | 39.54852 | 2.73862 | 38 ft | 4 kts | 266° |
| 2026-05-07 08:18 | 39.54854 | 2.73896 | 38 ft | 4 kts | 263° |
| 2026-05-07 08:18 | 39.54859 | 2.73931 | 38 ft | 4 kts | 254° |
| 2026-05-07 08:19 | 39.54868 | 2.73962 | 35 ft | 4 kts | 226° |
| 2026-05-07 08:19 | 39.54881 | 2.73973 | 35 ft | 2 kts | 152° |
| 2026-05-07 08:19 | 39.54883 | 2.73972 | 35 ft | 0 kts | 150° |
| 2026-05-07 08:21 | 39.54882 | 2.73973 | 35 ft | 1 kts | 150° |
| 2026-05-07 08:21 | 39.54874 | 2.73979 | 34 ft | 2 kts | 150° |
| 2026-05-07 08:22 | 39.54872 | 2.73981 | 33 ft | 0 kts | 150° |
| 2026-05-07 08:22 | 39.54841 | 2.73991 | 38 ft | 9 kts | 186° |
| 2026-05-07 08:22 | 39.54754 | 2.73949 | 38 ft | 15 kts | 187° |
| 2026-05-07 08:23 | 39.54674 | 2.73877 | 38 ft | 14 kts | 234° |
| 2026-05-07 08:23 | 39.54618 | 2.73766 | 38 ft | 15 kts | 240° |
| 2026-05-07 08:23 | 39.54565 | 2.73647 | 38 ft | 16 kts | 237° |
| 2026-05-07 08:23 | 39.54505 | 2.73527 | 38 ft | 16 kts | 237° |
| 2026-05-07 08:24 | 39.54446 | 2.73404 | 38 ft | 16 kts | 238° |
| 2026-05-07 08:24 | 39.54385 | 2.73276 | 38 ft | 17 kts | 238° |
| 2026-05-07 08:24 | 39.54331 | 2.73180 | 38 ft | 10 kts | 212° |
| 2026-05-07 08:24 | 39.54299 | 2.73180 | 38 ft | 0 kts | 155° |
| 2026-05-07 08:25 | 39.54294 | 2.73183 | 38 ft | 2 kts | 154° |
| 2026-05-07 08:25 | 39.54272 | 2.73222 | 38 ft | 9 kts | 110° |
| 2026-05-07 08:26 | 39.54253 | 2.73395 | 38 ft | 15 kts | 92° |
| 2026-05-07 08:26 | 39.54270 | 2.73468 | 38 ft | 0 kts | 63° |
| 2026-05-07 08:27 | 39.54384 | 2.73716 | 38 ft | 68 kts | 58° |
| 2026-05-07 08:27 | 39.54742 | 2.74482 | 37 ft | 129 kts | 59° |
| 2026-05-07 08:27 | 39.55297 | 2.75656 | 45 ft | 174 kts | 58° |
| 2026-05-07 08:27 | 39.55965 | 2.77040 | 470 ft | 188 kts | 59° |
| 2026-05-07 08:28 | 39.56669 | 2.78566 | 936 ft | 206 kts | 59° |
| 2026-05-07 08:28 | 39.57389 | 2.80165 | 1388 ft | 204 kts | 60° |
| 2026-05-07 08:28 | 39.58100 | 2.81749 | 1841 ft | 202 kts | 61° |
| 2026-05-07 08:28 | 39.58814 | 2.83336 | 2308 ft | 206 kts | 61° |
| 2026-05-07 08:29 | 39.59540 | 2.84942 | 2761 ft | 206 kts | 61° |
| 2026-05-07 08:29 | 39.60270 | 2.86547 | 3218 ft | 207 kts | 61° |
| 2026-05-07 08:29 | 39.61006 | 2.88159 | 3667 ft | 208 kts | 61° |
| 2026-05-07 08:29 | 39.61743 | 2.89777 | 4126 ft | 210 kts | 62° |
| 2026-05-07 08:30 | 39.62491 | 2.91437 | 4569 ft | 219 kts | 62° |
| 2026-05-07 08:30 | 39.63264 | 2.93212 | 5038 ft | 234 kts | 63° |
| 2026-05-07 08:30 | 39.64082 | 2.95109 | 5497 ft | 248 kts | 62° |
| 2026-05-07 08:30 | 39.64945 | 2.97107 | 5959 ft | 260 kts | 62° |
| 2026-05-07 08:31 | 39.65842 | 2.99180 | 6419 ft | 266 kts | 61° |
| 2026-05-07 08:31 | 39.66756 | 3.01289 | 6866 ft | 270 kts | 62° |
| 2026-05-07 08:31 | 39.67683 | 3.03425 | 7314 ft | 273 kts | 61° |
| 2026-05-07 08:31 | 39.68621 | 3.05583 | 7756 ft | 277 kts | 62° |
| 2026-05-07 08:32 | 39.69570 | 3.07774 | 8214 ft | 280 kts | 62° |
| 2026-05-07 08:32 | 39.70525 | 3.09992 | 8680 ft | 283 kts | 62° |
| 2026-05-07 08:32 | 39.71490 | 3.12233 | 9145 ft | 286 kts | 62° |
| 2026-05-07 08:32 | 39.72469 | 3.14506 | 9624 ft | 290 kts | 62° |
| 2026-05-07 08:33 | 39.73458 | 3.16805 | 10075 ft | 295 kts | 62° |
| 2026-05-07 08:33 | 39.74474 | 3.19173 | 10519 ft | 306 kts | 62° |
| 2026-05-07 08:33 | 39.75529 | 3.21631 | 10961 ft | 317 kts | 62° |
| 2026-05-07 08:33 | 39.76613 | 3.24175 | 11402 ft | 327 kts | 64° |
| 2026-05-07 08:34 | 39.77456 | 3.26955 | 11865 ft | 335 kts | 76° |
| 2026-05-07 08:34 | 39.77876 | 3.29962 | 12329 ft | 343 kts | 84° |
| 2026-05-07 08:34 | 39.78172 | 3.33080 | 12796 ft | 352 kts | 84° |
| 2026-05-07 08:34 | 39.78473 | 3.36271 | 13270 ft | 360 kts | 84° |
| 2026-05-07 08:35 | 39.78785 | 3.39543 | 13751 ft | 368 kts | 84° |
| 2026-05-07 08:35 | 39.79102 | 3.42864 | 14185 ft | 373 kts | 84° |
| 2026-05-07 08:35 | 39.79423 | 3.46220 | 14613 ft | 376 kts | 84° |
| 2026-05-07 08:35 | 39.79745 | 3.49605 | 15050 ft | 379 kts | 84° |
| 2026-05-07 08:36 | 39.80070 | 3.53029 | 15493 ft | 382 kts | 84° |
| 2026-05-07 08:36 | 39.80395 | 3.56473 | 15939 ft | 386 kts | 84° |
| 2026-05-07 08:36 | 39.80723 | 3.59959 | 16396 ft | 389 kts | 84° |
| 2026-05-07 08:36 | 39.81056 | 3.63465 | 16862 ft | 393 kts | 84° |
| 2026-05-07 08:37 | 39.81389 | 3.67001 | 17315 ft | 396 kts | 84° |
| 2026-05-07 08:37 | 39.81722 | 3.70564 | 17805 ft | 400 kts | 84° |
| 2026-05-07 08:37 | 39.82057 | 3.74167 | 18286 ft | 403 kts | 84° |
| 2026-05-07 08:37 | 39.82397 | 3.77808 | 18707 ft | 407 kts | 84° |
| 2026-05-07 08:38 | 39.82737 | 3.81478 | 19132 ft | 411 kts | 84° |
| 2026-05-07 08:38 | 39.83077 | 3.85191 | 19565 ft | 415 kts | 84° |
| 2026-05-07 08:38 | 39.83415 | 3.88945 | 20003 ft | 419 kts | 85° |
| 2026-05-07 08:38 | 39.83757 | 3.92729 | 20448 ft | 423 kts | 85° |
| 2026-05-07 08:39 | 39.84104 | 3.96553 | 20896 ft | 427 kts | 85° |
| 2026-05-07 08:39 | 39.84457 | 4.00410 | 21353 ft | 431 kts | 85° |
| 2026-05-07 08:39 | 39.84812 | 4.04295 | 21817 ft | 434 kts | 85° |
| 2026-05-07 08:39 | 39.85165 | 4.08195 | 22284 ft | 437 kts | 85° |
| 2026-05-07 08:40 | 39.85518 | 4.12131 | 22783 ft | 440 kts | 85° |
| 2026-05-07 08:40 | 39.85872 | 4.16101 | 23254 ft | 442 kts | 85° |
| 2026-05-07 08:40 | 39.86421 | 4.20043 | 23715 ft | 446 kts | 76° |
| 2026-05-07 08:40 | 39.87471 | 4.23855 | 24129 ft | 448 kts | 65° |
| 2026-05-07 08:41 | 39.88958 | 4.27416 | 24554 ft | 449 kts | 59° |
| 2026-05-07 08:41 | 39.90538 | 4.30920 | 24974 ft | 450 kts | 59° |
| 2026-05-07 08:41 | 39.92121 | 4.34446 | 25398 ft | 450 kts | 59° |
| 2026-05-07 08:41 | 39.93697 | 4.37966 | 25856 ft | 450 kts | 59° |
| 2026-05-07 08:42 | 39.95277 | 4.41501 | 26296 ft | 451 kts | 59° |
| 2026-05-07 08:42 | 39.96850 | 4.45026 | 26750 ft | 450 kts | 59° |
| 2026-05-07 08:42 | 39.98419 | 4.48549 | 27210 ft | 450 kts | 59° |
| 2026-05-07 08:42 | 39.99990 | 4.52078 | 27682 ft | 449 kts | 59° |
| 2026-05-07 08:43 | 40.01553 | 4.55587 | 28152 ft | 447 kts | 59° |
| 2026-05-07 08:43 | 40.03116 | 4.59098 | 28629 ft | 446 kts | 60° |
| 2026-05-07 08:43 | 40.04664 | 4.62586 | 29153 ft | 444 kts | 60° |
| 2026-05-07 08:43 | 40.06200 | 4.66061 | 29635 ft | 441 kts | 60° |
| 2026-05-07 08:44 | 40.07732 | 4.69529 | 30135 ft | 438 kts | 60° |
| 2026-05-07 08:44 | 40.09249 | 4.72959 | 30564 ft | 435 kts | 60° |
| 2026-05-07 08:44 | 40.10759 | 4.76374 | 31007 ft | 431 kts | 59° |
| 2026-05-07 08:44 | 40.12255 | 4.79753 | 31340 ft | 430 kts | 59° |
| 2026-05-07 08:45 | 40.13754 | 4.83140 | 31589 ft | 431 kts | 59° |
| 2026-05-07 08:45 | 40.15258 | 4.86537 | 31828 ft | 433 kts | 59° |
| 2026-05-07 08:45 | 40.16766 | 4.89945 | 32083 ft | 434 kts | 59° |
| 2026-05-07 08:45 | 40.18277 | 4.93369 | 32280 ft | 437 kts | 59° |
| 2026-05-07 08:46 | 40.19803 | 4.96833 | 32415 ft | 441 kts | 59° |
| 2026-05-07 08:46 | 40.21341 | 5.00333 | 32545 ft | 446 kts | 59° |
| 2026-05-07 08:46 | 40.22890 | 5.03865 | 32682 ft | 450 kts | 59° |
| 2026-05-07 08:46 | 40.24457 | 5.07439 | 32822 ft | 454 kts | 59° |
| 2026-05-07 08:47 | 40.26034 | 5.11044 | 32959 ft | 458 kts | 59° |
| 2026-05-07 08:47 | 40.27623 | 5.14680 | 33097 ft | 463 kts | 59° |
| 2026-05-07 08:47 | 40.29230 | 5.18357 | 33240 ft | 467 kts | 59° |
| 2026-05-07 08:47 | 40.30849 | 5.22063 | 33364 ft | 471 kts | 59° |
| 2026-05-07 08:48 | 40.32482 | 5.25805 | 33512 ft | 475 kts | 59° |
| 2026-05-07 08:48 | 40.34127 | 5.29582 | 33643 ft | 479 kts | 59° |
| 2026-05-07 08:48 | 40.35783 | 5.33394 | 33782 ft | 483 kts | 59° |
| 2026-05-07 08:48 | 40.37449 | 5.37235 | 33923 ft | 487 kts | 59° |
| 2026-05-07 08:49 | 40.39129 | 5.41116 | 34043 ft | 490 kts | 59° |
| 2026-05-07 08:49 | 40.40819 | 5.45017 | 34167 ft | 494 kts | 59° |
| 2026-05-07 08:49 | 40.42519 | 5.48947 | 34282 ft | 497 kts | 59° |
| 2026-05-07 08:49 | 40.44233 | 5.52907 | 34402 ft | 501 kts | 59° |
| 2026-05-07 08:50 | 40.45958 | 5.56901 | 34526 ft | 504 kts | 59° |
| 2026-05-07 08:50 | 40.47690 | 5.60920 | 34689 ft | 506 kts | 59° |
| 2026-05-07 08:50 | 40.49425 | 5.64951 | 34891 ft | 508 kts | 59° |
| 2026-05-07 08:50 | 40.51161 | 5.68987 | 35107 ft | 508 kts | 59° |
| 2026-05-07 08:51 | 40.52901 | 5.73041 | 35328 ft | 509 kts | 59° |
| 2026-05-07 08:51 | 40.54639 | 5.77093 | 35548 ft | 510 kts | 59° |
| 2026-05-07 08:51 | 40.56383 | 5.81162 | 35769 ft | 510 kts | 59° |
| 2026-05-07 08:51 | 40.58126 | 5.85229 | 35988 ft | 511 kts | 59° |
| 2026-05-07 08:52 | 40.59866 | 5.89304 | 36189 ft | 512 kts | 59° |
| 2026-05-07 08:52 | 40.61606 | 5.93396 | 36402 ft | 512 kts | 59° |
| 2026-05-07 08:52 | 40.63349 | 5.97493 | 36593 ft | 513 kts | 59° |
| 2026-05-07 08:52 | 40.65090 | 6.01599 | 36794 ft | 513 kts | 59° |
| 2026-05-07 08:53 | 40.66828 | 6.05704 | 36974 ft | 514 kts | 59° |
| 2026-05-07 08:53 | 40.68570 | 6.09817 | 37153 ft | 514 kts | 59° |
| 2026-05-07 08:53 | 40.70314 | 6.13938 | 37316 ft | 515 kts | 59° |
| 2026-05-07 08:53 | 40.72056 | 6.18055 | 37498 ft | 515 kts | 59° |
| 2026-05-07 08:54 | 40.73802 | 6.22183 | 37664 ft | 515 kts | 59° |
| 2026-05-07 08:54 | 40.75549 | 6.26313 | 37835 ft | 516 kts | 59° |
| 2026-05-07 08:54 | 40.77292 | 6.30439 | 37994 ft | 516 kts | 59° |
| 2026-05-07 08:54 | 40.79037 | 6.34583 | 38031 ft | 517 kts | 59° |
| 2026-05-07 08:55 | 40.82516 | 6.42883 | 38025 ft | 517 kts | 59° |
| 2026-05-07 08:55 | 40.85984 | 6.51196 | 38027 ft | 517 kts | 59° |
| 2026-05-07 08:56 | 40.89452 | 6.59508 | 38028 ft | 516 kts | 59° |
| 2026-05-07 08:56 | 40.92923 | 6.67822 | 38029 ft | 516 kts | 59° |
| 2026-05-07 08:57 | 40.96377 | 6.76131 | 38026 ft | 516 kts | 59° |
| 2026-05-07 08:57 | 40.99819 | 6.84454 | 38030 ft | 515 kts | 60° |
| 2026-05-07 08:58 | 41.03258 | 6.92780 | 38032 ft | 515 kts | 59° |
| 2026-05-07 08:58 | 41.06688 | 7.01109 | 38028 ft | 515 kts | 60° |
| 2026-05-07 08:59 | 41.10107 | 7.09452 | 38027 ft | 515 kts | 60° |
| 2026-05-07 08:59 | 41.13515 | 7.17802 | 38027 ft | 515 kts | 60° |
| 2026-05-07 09:00 | 41.16927 | 7.26159 | 38029 ft | 515 kts | 60° |
| 2026-05-07 09:00 | 41.20329 | 7.34522 | 38029 ft | 514 kts | 60° |
| 2026-05-07 09:01 | 41.23716 | 7.42873 | 38033 ft | 514 kts | 60° |
| 2026-05-07 09:01 | 41.27096 | 7.51232 | 38034 ft | 513 kts | 60° |
| 2026-05-07 09:02 | 41.30464 | 7.59576 | 38031 ft | 513 kts | 60° |
| 2026-05-07 09:02 | 41.33855 | 7.67992 | 38035 ft | 512 kts | 60° |
| 2026-05-07 09:03 | 41.37189 | 7.76304 | 38040 ft | 512 kts | 60° |
| 2026-05-07 09:03 | 41.41081 | 7.84145 | 38039 ft | 503 kts | 40° |
| 2026-05-07 09:04 | 41.42840 | 7.86186 | 38037 ft | 495 kts | 28° |
| 2026-05-07 09:04 | 41.45789 | 7.88474 | 38038 ft | 486 kts | 19° |
| 2026-05-07 09:04 | 41.52016 | 7.91843 | 38032 ft | 483 kts | 15° |
| 2026-05-07 09:05 | 41.58221 | 7.95300 | 38039 ft | 484 kts | 17° |
| 2026-05-07 09:05 | 41.64427 | 7.98801 | 38036 ft | 484 kts | 16° |
| 2026-05-07 09:06 | 41.70656 | 8.02197 | 38035 ft | 483 kts | 15° |
| 2026-05-07 09:06 | 41.76884 | 8.05534 | 38034 ft | 483 kts | 15° |
| 2026-05-07 09:07 | 41.83115 | 8.08901 | 38030 ft | 483 kts | 16° |
| 2026-05-07 09:07 | 41.89335 | 8.12292 | 38032 ft | 482 kts | 16° |
| 2026-05-07 09:08 | 41.95560 | 8.15688 | 38027 ft | 482 kts | 16° |
| 2026-05-07 09:08 | 42.01770 | 8.19073 | 38026 ft | 481 kts | 16° |
| 2026-05-07 09:09 | 42.07972 | 8.22464 | 38029 ft | 481 kts | 16° |
| 2026-05-07 09:09 | 42.14172 | 8.25873 | 38032 ft | 481 kts | 16° |
| 2026-05-07 09:10 | 42.20361 | 8.29284 | 38031 ft | 480 kts | 16° |
| 2026-05-07 09:10 | 42.26539 | 8.32697 | 38018 ft | 480 kts | 16° |
| 2026-05-07 09:11 | 42.32719 | 8.36113 | 38029 ft | 480 kts | 16° |
| 2026-05-07 09:11 | 42.38896 | 8.39520 | 38033 ft | 480 kts | 16° |
| 2026-05-07 09:12 | 42.45077 | 8.42937 | 38034 ft | 480 kts | 16° |
| 2026-05-07 09:12 | 42.51253 | 8.46370 | 38027 ft | 480 kts | 16° |
| 2026-05-07 09:13 | 42.57427 | 8.49808 | 38029 ft | 479 kts | 17° |
| 2026-05-07 09:13 | 42.63598 | 8.53252 | 38026 ft | 479 kts | 17° |
| 2026-05-07 09:14 | 42.69768 | 8.56694 | 38029 ft | 479 kts | 17° |
| 2026-05-07 09:14 | 42.75934 | 8.60149 | 38028 ft | 479 kts | 17° |
| 2026-05-07 09:15 | 42.82098 | 8.63618 | 38025 ft | 479 kts | 17° |
| 2026-05-07 09:15 | 42.88259 | 8.67091 | 38022 ft | 479 kts | 17° |
| 2026-05-07 09:16 | 42.94416 | 8.70563 | 38018 ft | 479 kts | 17° |
| 2026-05-07 09:16 | 43.00577 | 8.74038 | 38020 ft | 479 kts | 17° |
| 2026-05-07 09:17 | 43.06728 | 8.77521 | 38025 ft | 478 kts | 17° |
| 2026-05-07 09:17 | 43.12878 | 8.81014 | 38016 ft | 478 kts | 17° |
| 2026-05-07 09:18 | 43.19023 | 8.84501 | 38022 ft | 479 kts | 17° |
| 2026-05-07 09:18 | 43.25180 | 8.88007 | 38010 ft | 479 kts | 17° |
| 2026-05-07 09:19 | 43.31329 | 8.91526 | 38011 ft | 479 kts | 17° |
| 2026-05-07 09:19 | 43.37522 | 8.94779 | 38027 ft | 472 kts | 8° |
| 2026-05-07 09:20 | 43.43932 | 8.95851 | 38017 ft | 459 kts | 353° |
| 2026-05-07 09:20 | 43.50329 | 8.95816 | 38015 ft | 460 kts | 353° |
| 2026-05-07 09:21 | 43.56743 | 8.96073 | 37998 ft | 469 kts | 8° |
| 2026-05-07 09:21 | 43.59873 | 8.97672 | 38025 ft | 480 kts | 24° |
| 2026-05-07 09:21 | 43.62730 | 8.99986 | 38009 ft | 483 kts | 25° |
| 2026-05-07 09:22 | 43.68831 | 9.03881 | 38006 ft | 480 kts | 19° |
| 2026-05-07 09:22 | 43.74797 | 9.07927 | 37996 ft | 487 kts | 33° |
| 2026-05-07 09:23 | 43.80135 | 9.13755 | 38014 ft | 490 kts | 35° |
| 2026-05-07 09:23 | 43.85446 | 9.19657 | 38011 ft | 490 kts | 35° |
| 2026-05-07 09:24 | 43.90792 | 9.25608 | 38014 ft | 490 kts | 35° |
| 2026-05-07 09:24 | 43.96080 | 9.31493 | 38014 ft | 490 kts | 36° |
| 2026-05-07 09:25 | 44.01404 | 9.37428 | 38021 ft | 491 kts | 36° |
| 2026-05-07 09:25 | 44.06727 | 9.43376 | 38020 ft | 491 kts | 36° |
| 2026-05-07 09:26 | 44.12075 | 9.49369 | 38024 ft | 491 kts | 36° |
| 2026-05-07 09:26 | 44.17393 | 9.55350 | 38030 ft | 491 kts | 36° |
| 2026-05-07 09:27 | 44.22716 | 9.61343 | 38034 ft | 491 kts | 36° |
| 2026-05-07 09:28 | 44.30690 | 9.70338 | 38031 ft | 492 kts | 36° |
| 2026-05-07 09:28 | 44.35996 | 9.76343 | 38028 ft | 492 kts | 36° |
| 2026-05-07 09:29 | 44.41309 | 9.82370 | 38021 ft | 492 kts | 36° |
| 2026-05-07 09:29 | 44.46615 | 9.88414 | 38018 ft | 492 kts | 36° |
| 2026-05-07 09:30 | 44.51916 | 9.94470 | 38018 ft | 492 kts | 37° |
| 2026-05-07 09:30 | 44.57217 | 10.00536 | 38008 ft | 492 kts | 36° |
| 2026-05-07 09:31 | 44.62516 | 10.06604 | 38007 ft | 492 kts | 37° |
| 2026-05-07 09:31 | 44.67813 | 10.12695 | 38005 ft | 492 kts | 37° |
| 2026-05-07 09:32 | 44.73107 | 10.18785 | 38005 ft | 492 kts | 37° |
| 2026-05-07 09:32 | 44.78397 | 10.24895 | 38003 ft | 492 kts | 37° |
| 2026-05-07 09:33 | 44.83669 | 10.31035 | 38002 ft | 492 kts | 38° |
| 2026-05-07 09:33 | 44.88794 | 10.37443 | 38001 ft | 493 kts | 40° |
| 2026-05-07 09:34 | 44.93830 | 10.44001 | 38005 ft | 493 kts | 41° |
| 2026-05-07 09:34 | 44.98878 | 10.50528 | 38009 ft | 492 kts | 40° |
| 2026-05-07 09:35 | 45.03971 | 10.57011 | 38012 ft | 492 kts | 40° |
| 2026-05-07 09:35 | 45.09058 | 10.63498 | 38009 ft | 492 kts | 40° |
| 2026-05-07 09:36 | 45.14127 | 10.70023 | 38006 ft | 493 kts | 40° |
| 2026-05-07 09:36 | 45.19210 | 10.76550 | 38007 ft | 493 kts | 40° |
| 2026-05-07 09:37 | 45.24383 | 10.82923 | 38009 ft | 493 kts | 39° |
| 2026-05-07 09:37 | 45.29599 | 10.89230 | 37999 ft | 493 kts | 39° |
| 2026-05-07 09:38 | 45.34793 | 10.95583 | 38000 ft | 493 kts | 39° |
| 2026-05-07 09:38 | 45.39964 | 11.02002 | 38006 ft | 493 kts | 40° |
| 2026-05-07 09:39 | 45.45131 | 11.08425 | 38005 ft | 493 kts | 39° |
| 2026-05-07 09:39 | 45.50308 | 11.14845 | 37997 ft | 493 kts | 39° |
| 2026-05-07 09:40 | 45.55484 | 11.21285 | 37994 ft | 494 kts | 40° |
| 2026-05-07 09:40 | 45.60651 | 11.27744 | 37988 ft | 494 kts | 40° |
| 2026-05-07 09:41 | 45.65814 | 11.34206 | 37981 ft | 493 kts | 40° |
| 2026-05-07 09:41 | 45.70978 | 11.40685 | 37989 ft | 494 kts | 40° |
| 2026-05-07 09:42 | 45.75264 | 11.46087 | 37983 ft | 494 kts | 40° |
| 2026-05-07 09:42 | 45.80420 | 11.52587 | 37980 ft | 494 kts | 40° |
| 2026-05-07 09:43 | 45.85579 | 11.59102 | 37977 ft | 494 kts | 40° |
| 2026-05-07 09:43 | 45.90729 | 11.65613 | 37975 ft | 493 kts | 40° |
| 2026-05-07 09:44 | 45.95935 | 11.72138 | 37978 ft | 493 kts | 39° |
| 2026-05-07 09:44 | 46.01273 | 11.78333 | 37973 ft | 493 kts | 37° |
| 2026-05-07 09:45 | 46.06636 | 11.84365 | 37975 ft | 493 kts | 37° |
| 2026-05-07 09:45 | 46.12000 | 11.90506 | 37969 ft | 492 kts | 38° |
| 2026-05-07 09:46 | 46.17356 | 11.96778 | 38054 ft | 493 kts | 38° |
| 2026-05-07 09:46 | 46.20009 | 11.99908 | 38268 ft | 492 kts | 38° |
| 2026-05-07 09:46 | 46.22656 | 12.03023 | 38463 ft | 491 kts | 38° |
| 2026-05-07 09:46 | 46.25308 | 12.06140 | 38632 ft | 491 kts | 38° |
| 2026-05-07 09:47 | 46.27954 | 12.09242 | 38759 ft | 490 kts | 38° |
| 2026-05-07 09:47 | 46.30605 | 12.12342 | 38900 ft | 490 kts | 38° |
| 2026-05-07 09:47 | 46.33259 | 12.15446 | 38949 ft | 490 kts | 38° |
| 2026-05-07 09:48 | 46.38554 | 12.21659 | 38961 ft | 490 kts | 38° |
| 2026-05-07 09:48 | 46.43849 | 12.27904 | 38980 ft | 490 kts | 38° |
| 2026-05-07 09:49 | 46.49133 | 12.34160 | 38992 ft | 490 kts | 38° |
| 2026-05-07 09:49 | 46.54412 | 12.40432 | 38996 ft | 491 kts | 39° |
| 2026-05-07 09:50 | 46.59700 | 12.46721 | 39008 ft | 491 kts | 39° |
| 2026-05-07 09:50 | 46.64987 | 12.53015 | 39006 ft | 491 kts | 38° |
| 2026-05-07 09:51 | 46.70204 | 12.59446 | 39002 ft | 491 kts | 46° |
| 2026-05-07 09:51 | 46.74506 | 12.67168 | 38998 ft | 491 kts | 53° |
| 2026-05-07 09:52 | 46.78659 | 12.75065 | 38985 ft | 491 kts | 53° |
| 2026-05-07 09:52 | 46.82817 | 12.82965 | 38988 ft | 491 kts | 53° |
| 2026-05-07 09:53 | 46.86955 | 12.90892 | 38991 ft | 490 kts | 53° |
| 2026-05-07 09:53 | 46.91086 | 12.98840 | 38989 ft | 491 kts | 53° |
| 2026-05-07 09:54 | 46.95216 | 13.06800 | 38986 ft | 491 kts | 53° |
| 2026-05-07 09:54 | 46.99339 | 13.14762 | 38990 ft | 491 kts | 53° |
| 2026-05-07 09:55 | 47.03456 | 13.22737 | 38993 ft | 491 kts | 53° |
| 2026-05-07 09:55 | 47.07572 | 13.30729 | 38989 ft | 491 kts | 53° |
| 2026-05-07 09:56 | 47.11681 | 13.38734 | 38990 ft | 491 kts | 54° |
| 2026-05-07 09:56 | 47.15784 | 13.46749 | 38991 ft | 491 kts | 54° |
| 2026-05-07 09:57 | 47.19882 | 13.54790 | 38995 ft | 491 kts | 54° |
| 2026-05-07 09:57 | 47.23973 | 13.62845 | 38990 ft | 491 kts | 53° |
| 2026-05-07 09:58 | 47.28098 | 13.70867 | 38997 ft | 492 kts | 51° |
| 2026-05-07 09:58 | 47.32547 | 13.78511 | 38984 ft | 491 kts | 48° |
| 2026-05-07 09:59 | 47.37156 | 13.85951 | 38996 ft | 492 kts | 48° |
| 2026-05-07 09:59 | 47.41712 | 13.93469 | 38997 ft | 491 kts | 49° |
| 2026-05-07 10:00 | 47.46186 | 14.01096 | 38998 ft | 491 kts | 50° |
| 2026-05-07 10:00 | 47.50632 | 14.08763 | 38999 ft | 491 kts | 50° |
| 2026-05-07 10:01 | 47.55098 | 14.16405 | 39008 ft | 491 kts | 49° |
| 2026-05-07 10:01 | 47.59573 | 14.24032 | 39009 ft | 491 kts | 49° |
| 2026-05-07 10:02 | 47.64037 | 14.31680 | 39010 ft | 490 kts | 50° |
| 2026-05-07 10:02 | 47.68481 | 14.39337 | 39006 ft | 490 kts | 50° |
| 2026-05-07 10:03 | 47.72923 | 14.47026 | 39001 ft | 490 kts | 50° |
| 2026-05-07 10:03 | 47.77352 | 14.54695 | 39005 ft | 489 kts | 50° |
| 2026-05-07 10:04 | 47.81780 | 14.62383 | 39004 ft | 489 kts | 50° |
| 2026-05-07 10:04 | 47.86205 | 14.70075 | 39002 ft | 489 kts | 50° |
| 2026-05-07 10:05 | 47.90577 | 14.77846 | 39009 ft | 488 kts | 56° |
| 2026-05-07 10:05 | 47.94227 | 14.86355 | 39012 ft | 487 kts | 59° |
| 2026-05-07 10:06 | 47.97812 | 14.94922 | 39021 ft | 487 kts | 59° |
| 2026-05-07 10:06 | 48.01401 | 15.03496 | 39018 ft | 486 kts | 59° |
| 2026-05-07 10:07 | 48.04979 | 15.12063 | 39014 ft | 486 kts | 59° |
| 2026-05-07 10:07 | 48.08541 | 15.20646 | 39013 ft | 486 kts | 59° |
| 2026-05-07 10:08 | 48.12098 | 15.29228 | 39012 ft | 485 kts | 59° |
| 2026-05-07 10:08 | 48.15637 | 15.37831 | 39012 ft | 485 kts | 60° |
| 2026-05-07 10:09 | 48.19167 | 15.46422 | 39007 ft | 484 kts | 60° |
| 2026-05-07 10:09 | 48.22697 | 15.55010 | 39005 ft | 483 kts | 60° |
| 2026-05-07 10:10 | 48.26209 | 15.63588 | 39002 ft | 483 kts | 60° |
| 2026-05-07 10:10 | 48.29711 | 15.72184 | 38999 ft | 482 kts | 60° |
| 2026-05-07 10:11 | 48.33199 | 15.80784 | 38995 ft | 482 kts | 60° |
| 2026-05-07 10:11 | 48.36680 | 15.89382 | 38995 ft | 481 kts | 60° |
| 2026-05-07 10:12 | 48.40148 | 15.97987 | 38995 ft | 481 kts | 60° |
| 2026-05-07 10:12 | 48.43624 | 16.06605 | 38991 ft | 481 kts | 60° |
| 2026-05-07 10:13 | 48.47143 | 16.15190 | 38985 ft | 481 kts | 60° |
| 2026-05-07 10:13 | 48.50669 | 16.23769 | 38984 ft | 482 kts | 60° |
| 2026-05-07 10:14 | 48.54184 | 16.32385 | 38980 ft | 482 kts | 60° |
| 2026-05-07 10:14 | 48.57675 | 16.41026 | 38981 ft | 483 kts | 60° |
| 2026-05-07 10:15 | 48.61162 | 16.49692 | 38975 ft | 483 kts | 60° |
| 2026-05-07 10:15 | 48.64652 | 16.58374 | 38976 ft | 483 kts | 60° |
| 2026-05-07 10:16 | 48.68147 | 16.67063 | 38973 ft | 484 kts | 60° |
| 2026-05-07 10:16 | 48.71643 | 16.75778 | 38970 ft | 484 kts | 60° |
| 2026-05-07 10:17 | 48.75570 | 16.84062 | 38971 ft | 485 kts | 52° |
| 2026-05-07 10:17 | 48.79750 | 16.92112 | 38974 ft | 486 kts | 53° |
| 2026-05-07 10:18 | 48.83922 | 17.00178 | 38971 ft | 486 kts | 53° |
| 2026-05-07 10:18 | 48.88096 | 17.08259 | 38978 ft | 486 kts | 53° |
| 2026-05-07 10:19 | 48.92265 | 17.16347 | 38980 ft | 486 kts | 53° |
| 2026-05-07 10:19 | 48.96424 | 17.24450 | 38986 ft | 486 kts | 53° |
| 2026-05-07 10:20 | 49.00578 | 17.32566 | 38990 ft | 486 kts | 53° |
| 2026-05-07 10:20 | 49.04056 | 17.39380 | 38991 ft | 486 kts | 53° |
| 2026-05-07 10:21 | 49.08197 | 17.47510 | 38994 ft | 486 kts | 53° |
| 2026-05-07 10:21 | 49.12329 | 17.55657 | 38988 ft | 485 kts | 53° |
| 2026-05-07 10:22 | 49.16459 | 17.63823 | 38985 ft | 485 kts | 53° |
| 2026-05-07 10:22 | 49.20578 | 17.71984 | 38963 ft | 485 kts | 53° |
| 2026-05-07 10:22 | 49.22636 | 17.76075 | 38110 ft | 485 kts | 53° |
| 2026-05-07 10:23 | 49.24686 | 17.80162 | 37079 ft | 481 kts | 53° |
| 2026-05-07 10:23 | 49.26706 | 17.84193 | 36181 ft | 475 kts | 53° |
| 2026-05-07 10:23 | 49.28701 | 17.88172 | 35421 ft | 466 kts | 54° |
| 2026-05-07 10:23 | 49.30657 | 17.92079 | 34678 ft | 458 kts | 54° |
| 2026-05-07 10:24 | 49.32580 | 17.95922 | 33875 ft | 452 kts | 54° |
| 2026-05-07 10:24 | 49.34480 | 17.99726 | 32975 ft | 446 kts | 54° |
| 2026-05-07 10:24 | 49.36349 | 18.03476 | 32141 ft | 439 kts | 54° |
| 2026-05-07 10:24 | 49.38186 | 18.07175 | 31351 ft | 433 kts | 54° |
| 2026-05-07 10:25 | 49.39991 | 18.10821 | 30567 ft | 427 kts | 54° |
| 2026-05-07 10:25 | 49.41781 | 18.14440 | 29775 ft | 422 kts | 54° |
| 2026-05-07 10:25 | 49.43542 | 18.17999 | 28940 ft | 416 kts | 54° |
| 2026-05-07 10:25 | 49.45282 | 18.21508 | 28101 ft | 411 kts | 54° |
| 2026-05-07 10:26 | 49.47006 | 18.24989 | 27295 ft | 406 kts | 54° |
| 2026-05-07 10:26 | 49.48699 | 18.28416 | 26500 ft | 401 kts | 54° |
| 2026-05-07 10:26 | 49.50373 | 18.31818 | 25702 ft | 396 kts | 54° |
| 2026-05-07 10:26 | 49.52027 | 18.35182 | 24924 ft | 391 kts | 54° |
| 2026-05-07 10:27 | 49.53659 | 18.38502 | 24167 ft | 387 kts | 54° |
| 2026-05-07 10:27 | 49.55276 | 18.41794 | 23423 ft | 383 kts | 54° |
| 2026-05-07 10:27 | 49.56870 | 18.45047 | 22584 ft | 378 kts | 54° |
| 2026-05-07 10:27 | 49.58441 | 18.48258 | 21760 ft | 373 kts | 54° |
| 2026-05-07 10:28 | 49.59992 | 18.51428 | 20995 ft | 368 kts | 54° |
| 2026-05-07 10:28 | 49.61522 | 18.54557 | 20250 ft | 363 kts | 54° |
| 2026-05-07 10:28 | 49.63031 | 18.57650 | 19496 ft | 359 kts | 54° |
| 2026-05-07 10:28 | 49.64519 | 18.60709 | 18783 ft | 353 kts | 54° |
| 2026-05-07 10:29 | 49.65969 | 18.63685 | 18382 ft | 339 kts | 53° |
| 2026-05-07 10:29 | 49.67525 | 18.66412 | 18039 ft | 340 kts | 44° |
| 2026-05-07 10:29 | 49.69326 | 18.68784 | 17784 ft | 341 kts | 35° |
| 2026-05-07 10:30 | 49.73459 | 18.72220 | 17364 ft | 336 kts | 17° |
| 2026-05-07 10:30 | 49.75697 | 18.73215 | 17180 ft | 333 kts | 10° |
| 2026-05-07 10:30 | 49.77952 | 18.74040 | 16998 ft | 333 kts | 11° |
| 2026-05-07 10:30 | 49.80202 | 18.74876 | 16833 ft | 332 kts | 11° |
| 2026-05-07 10:31 | 49.82439 | 18.75709 | 16661 ft | 331 kts | 11° |
| 2026-05-07 10:31 | 49.84667 | 18.76588 | 16496 ft | 331 kts | 17° |
| 2026-05-07 10:31 | 49.86743 | 18.78112 | 16328 ft | 332 kts | 33° |
| 2026-05-07 10:31 | 49.88513 | 18.80387 | 16155 ft | 331 kts | 48° |
| 2026-05-07 10:32 | 49.89876 | 18.83242 | 15995 ft | 329 kts | 63° |
| 2026-05-07 10:32 | 49.90762 | 18.86488 | 15845 ft | 325 kts | 78° |
| 2026-05-07 10:32 | 49.91123 | 18.89917 | 15766 ft | 321 kts | 92° |
| 2026-05-07 10:32 | 49.91013 | 18.93343 | 15700 ft | 318 kts | 99° |
| 2026-05-07 10:33 | 49.90816 | 18.96750 | 15626 ft | 315 kts | 99° |
| 2026-05-07 10:33 | 49.90624 | 19.00110 | 15555 ft | 311 kts | 99° |
| 2026-05-07 10:33 | 49.90435 | 19.03447 | 15483 ft | 310 kts | 98° |
| 2026-05-07 10:33 | 49.90244 | 19.06794 | 15512 ft | 314 kts | 98° |
| 2026-05-07 10:34 | 49.90043 | 19.10246 | 15075 ft | 326 kts | 98° |
| 2026-05-07 10:34 | 49.89838 | 19.13752 | 14474 ft | 326 kts | 98° |
| 2026-05-07 10:34 | 49.89637 | 19.17240 | 13878 ft | 323 kts | 98° |
| 2026-05-07 10:34 | 49.89439 | 19.20692 | 13234 ft | 320 kts | 98° |
| 2026-05-07 10:35 | 49.89248 | 19.24109 | 12580 ft | 317 kts | 96° |
| 2026-05-07 10:35 | 49.89325 | 19.27513 | 11938 ft | 316 kts | 83° |
| 2026-05-07 10:35 | 49.89829 | 19.30818 | 11299 ft | 315 kts | 72° |
| 2026-05-07 10:35 | 49.90673 | 19.33942 | 10678 ft | 313 kts | 67° |
| 2026-05-07 10:36 | 49.91544 | 19.37019 | 10080 ft | 310 kts | 67° |
| 2026-05-07 10:36 | 49.92402 | 19.40075 | 9449 ft | 307 kts | 67° |
| 2026-05-07 10:36 | 49.93247 | 19.43100 | 8800 ft | 304 kts | 67° |
| 2026-05-07 10:36 | 49.94084 | 19.46106 | 8155 ft | 301 kts | 68° |
| 2026-05-07 10:37 | 49.94831 | 19.49111 | 7527 ft | 296 kts | 75° |
| 2026-05-07 10:37 | 49.95281 | 19.52192 | 6926 ft | 290 kts | 79° |
| 2026-05-07 10:37 | 49.95686 | 19.55234 | 6318 ft | 286 kts | 79° |
| 2026-05-07 10:37 | 49.96092 | 19.58238 | 5687 ft | 283 kts | 79° |
| 2026-05-07 10:38 | 49.96496 | 19.61215 | 5153 ft | 277 kts | 79° |
| 2026-05-07 10:38 | 49.96875 | 19.64003 | 5037 ft | 251 kts | 79° |
| 2026-05-07 10:38 | 49.97223 | 19.66556 | 5015 ft | 237 kts | 79° |
| 2026-05-07 10:38 | 49.97564 | 19.69053 | 5022 ft | 236 kts | 79° |
| 2026-05-07 10:39 | 49.97902 | 19.71547 | 5026 ft | 235 kts | 79° |
| 2026-05-07 10:39 | 49.98238 | 19.74033 | 5031 ft | 235 kts | 79° |
| 2026-05-07 10:39 | 49.98575 | 19.76529 | 5029 ft | 236 kts | 79° |
| 2026-05-07 10:39 | 49.98881 | 19.78795 | 5032 ft | 237 kts | 78° |
| 2026-05-07 10:40 | 49.99226 | 19.81348 | 5027 ft | 230 kts | 79° |
| 2026-05-07 10:40 | 49.99551 | 19.83754 | 5028 ft | 226 kts | 79° |
| 2026-05-07 10:40 | 49.99874 | 19.86145 | 5031 ft | 225 kts | 79° |
| 2026-05-07 10:40 | 50.00194 | 19.88523 | 5034 ft | 225 kts | 79° |
| 2026-05-07 10:41 | 50.00515 | 19.90902 | 5025 ft | 224 kts | 80° |
| 2026-05-07 10:41 | 50.00836 | 19.93282 | 5031 ft | 226 kts | 79° |
| 2026-05-07 10:41 | 50.01158 | 19.95672 | 5030 ft | 225 kts | 79° |
| 2026-05-07 10:41 | 50.01481 | 19.98049 | 5018 ft | 224 kts | 80° |
| 2026-05-07 10:42 | 50.01803 | 20.00425 | 5028 ft | 225 kts | 79° |
| 2026-05-07 10:42 | 50.02125 | 20.02809 | 5029 ft | 225 kts | 78° |
| 2026-05-07 10:42 | 50.02449 | 20.05187 | 5024 ft | 225 kts | 79° |
| 2026-05-07 10:42 | 50.02772 | 20.07572 | 5019 ft | 225 kts | 79° |
| 2026-05-07 10:43 | 50.03093 | 20.09952 | 5014 ft | 223 kts | 79° |
| 2026-05-07 10:43 | 50.03412 | 20.12296 | 5019 ft | 222 kts | 79° |
| 2026-05-07 10:43 | 50.03729 | 20.14637 | 5024 ft | 222 kts | 79° |
| 2026-05-07 10:43 | 50.04035 | 20.16978 | 5017 ft | 220 kts | 80° |
| 2026-05-07 10:44 | 50.04345 | 20.19304 | 5017 ft | 220 kts | 79° |
| 2026-05-07 10:44 | 50.04654 | 20.21645 | 5021 ft | 221 kts | 79° |
| 2026-05-07 10:44 | 50.04961 | 20.23981 | 5014 ft | 220 kts | 78° |
| 2026-05-07 10:44 | 50.05564 | 20.26145 | 5004 ft | 219 kts | 46° |
| 2026-05-07 10:45 | 50.06806 | 20.27399 | 5013 ft | 213 kts | 9° |
| 2026-05-07 10:45 | 50.08263 | 20.27549 | 5024 ft | 210 kts | 352° |
| 2026-05-07 10:45 | 50.09673 | 20.27405 | 5033 ft | 193 kts | 350° |
| 2026-05-07 10:45 | 50.10949 | 20.27256 | 5049 ft | 180 kts | 349° |
| 2026-05-07 10:46 | 50.12189 | 20.27116 | 5020 ft | 178 kts | 350° |
| 2026-05-07 10:46 | 50.13426 | 20.26961 | 5009 ft | 178 kts | 349° |
| 2026-05-07 10:46 | 50.14666 | 20.26800 | 5018 ft | 179 kts | 350° |
| 2026-05-07 10:46 | 50.15903 | 20.26635 | 5014 ft | 179 kts | 349° |
| 2026-05-07 10:47 | 50.17147 | 20.26481 | 4994 ft | 178 kts | 349° |
| 2026-05-07 10:47 | 50.18308 | 20.25981 | 5005 ft | 170 kts | 317° |
| 2026-05-07 10:47 | 50.18899 | 20.24534 | 5007 ft | 157 kts | 274° |
| 2026-05-07 10:47 | 50.18597 | 20.22982 | 5007 ft | 155 kts | 228° |
| 2026-05-07 10:48 | 50.17798 | 20.21837 | 5008 ft | 156 kts | 230° |
| 2026-05-07 10:48 | 50.17071 | 20.20576 | 5017 ft | 157 kts | 230° |
| 2026-05-07 10:48 | 50.16346 | 20.19315 | 5009 ft | 155 kts | 230° |
| 2026-05-07 10:48 | 50.15624 | 20.18061 | 5017 ft | 155 kts | 230° |
| 2026-05-07 10:49 | 50.14903 | 20.16810 | 5019 ft | 155 kts | 230° |
| 2026-05-07 10:49 | 50.14178 | 20.15552 | 5018 ft | 156 kts | 230° |
| 2026-05-07 10:49 | 50.13450 | 20.14289 | 5017 ft | 156 kts | 229° |
| 2026-05-07 10:49 | 50.12833 | 20.12898 | 4969 ft | 157 kts | 242° |
| 2026-05-07 10:50 | 50.12426 | 20.11334 | 4822 ft | 155 kts | 251° |
| 2026-05-07 10:50 | 50.12131 | 20.09754 | 4649 ft | 151 kts | 253° |
| 2026-05-07 10:50 | 50.11881 | 20.08172 | 4442 ft | 151 kts | 256° |
| 2026-05-07 10:50 | 50.11650 | 20.06582 | 4254 ft | 150 kts | 257° |
| 2026-05-07 10:51 | 50.11429 | 20.05009 | 4049 ft | 147 kts | 257° |
| 2026-05-07 10:51 | 50.11212 | 20.03443 | 3866 ft | 147 kts | 256° |
| 2026-05-07 10:51 | 50.10997 | 20.01877 | 3671 ft | 150 kts | 256° |
| 2026-05-07 10:51 | 50.10780 | 20.00295 | 3483 ft | 148 kts | 257° |
| 2026-05-07 10:52 | 50.10565 | 19.98725 | 3292 ft | 148 kts | 254° |
| 2026-05-07 10:52 | 50.10350 | 19.97157 | 3107 ft | 148 kts | 259° |
| 2026-05-07 10:52 | 50.10134 | 19.95584 | 2886 ft | 147 kts | 257° |
| 2026-05-07 10:52 | 50.09919 | 19.94019 | 2725 ft | 150 kts | 256° |
| 2026-05-07 10:53 | 50.09703 | 19.92451 | 2505 ft | 146 kts | 257° |
| 2026-05-07 10:53 | 50.09487 | 19.90879 | 2298 ft | 147 kts | 255° |
| 2026-05-07 10:53 | 50.09273 | 19.89326 | 2118 ft | 150 kts | 258° |
| 2026-05-07 10:53 | 50.09056 | 19.87751 | 1902 ft | 145 kts | 257° |
| 2026-05-07 10:54 | 50.08850 | 19.86267 | 1688 ft | 136 kts | 256° |
| 2026-05-07 10:54 | 50.08656 | 19.84860 | 1477 ft | 132 kts | 255° |
| 2026-05-07 10:54 | 50.08464 | 19.83469 | 1279 ft | 132 kts | 258° |
| 2026-05-07 10:54 | 50.08273 | 19.82094 | 1106 ft | 128 kts | 259° |
| 2026-05-07 10:55 | 50.08087 | 19.80751 | 931 ft | 126 kts | 258° |
| 2026-05-07 10:55 | 50.07903 | 19.79426 | 809 ft | 119 kts | 258° |
| 2026-05-07 10:55 | 50.07799 | 19.78675 | 801 ft | 31 kts | 256° |
| 2026-05-07 10:55 | 50.07745 | 19.78323 | 801 ft | 36 kts | 257° |
| 2026-05-07 10:56 | 50.07701 | 19.78115 | 799 ft | 18 kts | 225° |
| 2026-05-07 10:56 | 50.07619 | 19.78098 | 800 ft | 10 kts | 184° |
| 2026-05-07 10:56 | 50.07535 | 19.78086 | 800 ft | 4 kts | 184° |
| 2026-05-07 10:58 | 50.07487 | 19.78120 | 800 ft | 15 kts | 120° |
| 2026-05-07 10:58 | 50.07498 | 19.78296 | 800 ft | 22 kts | 80° |
| 2026-05-07 10:58 | 50.07535 | 19.78593 | 800 ft | 26 kts | 77° |
| 2026-05-07 10:58 | 50.07540 | 19.78623 | 800 ft | 1 kts | 78° |
| 2026-05-07 10:59 | 50.07549 | 19.78693 | 800 ft | 9 kts | 78° |
| 2026-05-07 10:59 | 50.07550 | 19.78699 | 800 ft | 1 kts | 78° |
| 2026-05-07 10:59 | 50.07561 | 19.78781 | 800 ft | 14 kts | 78° |
| 2026-05-07 10:59 | 50.07591 | 19.78994 | 800 ft | 26 kts | 78° |
| 2026-05-07 11:00 | 50.07633 | 19.79302 | 800 ft | 24 kts | 78° |
| 2026-05-07 11:00 | 50.07661 | 19.79523 | 800 ft | 13 kts | 80° |
| 2026-05-07 11:00 | 50.07660 | 19.79661 | 800 ft | 13 kts | 122° |
| 2026-05-07 11:00 | 50.07580 | 19.79724 | 800 ft | 14 kts | 165° |
| 2026-05-07 11:01 | 50.07512 | 19.79739 | 800 ft | 6 kts | 197° |
| 2026-05-07 11:01 | 50.07493 | 19.79701 | 800 ft | 1 kts | 242° |
| 2026-05-07 11:01 | 50.07490 | 19.79683 | 800 ft | 2 kts | 250° |
| 2026-05-07 11:01 | 50.07487 | 19.79673 | 800 ft | 0 kts | 253° |